Time;durP1;ratioP1;P1;durP2;ratioP2;P2;SDS_P1;SDS_P2;PMS_P1;PMS_P2;Temp;Humidity;BMP_temperature;BMP_pressure;BME280_temperature;BME280_humidity;BME280_pressure;Samples;Min_cycle;Max_cycle;Signal;HPM_P1;HPM_P2
2022/06/30 00:00:12;;;;;;;9.80;4.63;;;;;;;25.30;60.69;99346.50;6215503;23;20008;-87
2022/06/30 00:02:38;;;;;;;8.45;4.88;;;;;;;25.21;60.98;99349.81;6188835;23;20441;-87
2022/06/30 00:05:05;;;;;;;9.10;5.13;;;;;;;25.18;61.07;99345.25;6218847;23;20001;-88
2022/06/30 00:07:30;;;;;;;9.07;5.38;;;;;;;25.20;60.73;99339.78;6218228;23;20064;-87
2022/06/30 00:09:56;;;;;;;6.75;4.68;;;;;;;25.21;61.39;99344.13;6215610;23;20046;-87
2022/06/30 00:12:21;;;;;;;9.18;4.97;;;;;;;25.23;59.73;99344.38;6215441;23;20011;-88
2022/06/30 00:14:47;;;;;;;7.22;5.00;;;;;;;25.22;59.99;99346.44;6217001;23;20036;-88
2022/06/30 00:17:12;;;;;;;8.95;4.93;;;;;;;25.16;59.99;99347.88;6215750;23;20008;-86
2022/06/30 00:19:38;;;;;;;9.45;4.93;;;;;;;25.22;59.40;99357.78;6217009;23;20163;-86
2022/06/30 00:22:06;;;;;;;8.07;4.90;;;;;;;25.23;61.71;99350.03;6191877;23;20453;-86
2022/06/30 00:24:32;;;;;;;8.82;5.47;;;;;;;24.95;64.46;99351.47;6195123;23;20084;-88
2022/06/30 00:26:58;;;;;;;9.02;4.80;;;;;;;24.97;63.75;99350.94;6220855;23;20035;-89
2022/06/30 00:29:24;;;;;;;6.90;5.30;;;;;;;24.74;65.53;99347.84;6218507;23;20068;-85
2022/06/30 00:31:50;;;;;;;10.70;4.97;;;;;;;24.61;64.99;99351.50;6215455;23;20016;-88
2022/06/30 00:34:16;;;;;;;10.68;4.97;;;;;;;24.44;65.73;99347.50;6192220;23;20034;-89
2022/06/30 00:36:43;;;;;;;5.80;4.53;;;;;;;24.50;65.23;99345.31;6219791;23;20071;-89
2022/06/30 00:39:09;;;;;;;7.43;4.85;;;;;;;24.60;64.07;99349.19;6191878;23;20012;-89
2022/06/30 00:41:41;;;;;;;7.07;5.43;;;;;;;24.50;64.39;99339.66;6220984;23;20095;-90
2022/06/30 00:44:07;;;;;;;15.15;5.88;;;;;;;24.27;64.19;99349.94;6172268;23;20334;-91
2022/06/30 00:46:34;;;;;;;6.68;5.10;;;;;;;24.27;64.75;99341.44;6194830;23;20060;-89
2022/06/30 00:49:00;;;;;;;8.02;4.63;;;;;;;24.47;64.09;99332.22;6223184;23;20036;-89
2022/06/30 00:51:26;;;;;;;8.00;4.85;;;;;;;24.10;66.88;99330.47;6216846;23;20024;-89
2022/06/30 00:53:52;;;;;;;6.50;4.72;;;;;;;24.15;68.03;99333.19;6231826;23;20073;-89
2022/06/30 00:56:20;;;;;;;7.95;5.05;;;;;;;23.97;70.02;99334.06;6168121;23;20004;-91
2022/06/30 00:58:46;;;;;;;7.28;5.13;;;;;;;24.04;70.01;99327.75;6242839;23;20026;-88
2022/06/30 01:03:55;;;;;;;7.18;4.90;;;;;;;23.96;69.78;99324.03;6232795;22;20635;-81
2022/06/30 01:06:22;;;;;;;7.78;5.20;;;;;;;23.98;69.03;99329.19;6216848;23;20087;-81
2022/06/30 01:08:49;;;;;;;10.80;5.00;;;;;;;23.83;70.00;99324.06;6215879;23;20020;-81
2022/06/30 01:14:02;;;;;;;7.15;5.40;;;;;;;23.44;73.25;99321.22;6242298;23;20034;-82
2022/06/30 01:16:28;;;;;;;8.70;5.18;;;;;;;23.38;73.88;99309.22;6216852;23;20008;-82
2022/06/30 01:18:53;;;;;;;9.02;6.03;;;;;;;23.38;73.73;99317.69;6242019;23;20458;-82
2022/06/30 01:21:19;;;;;;;8.38;5.38;;;;;;;23.32;73.26;99314.97;6217089;23;20038;-82
2022/06/30 01:23:45;;;;;;;6.78;4.97;;;;;;;23.14;75.14;99315.81;6244094;23;20027;-82
2022/06/30 01:26:10;;;;;;;8.13;5.30;;;;;;;23.26;74.49;99311.47;6215880;23;20016;-81
2022/06/30 01:28:36;;;;;;;8.00;5.28;;;;;;;23.29;74.78;99312.47;6241951;23;20027;-82
2022/06/30 01:31:02;;;;;;;7.90;4.80;;;;;;;23.40;73.85;99303.78;6217046;23;20012;-82
2022/06/30 01:33:27;;;;;;;9.48;5.68;;;;;;;23.07;72.52;99305.91;6243575;23;20150;-82
2022/06/30 01:35:56;;;;;;;7.90;5.28;;;;;;;23.02;72.09;99312.41;6215402;23;20012;-82
2022/06/30 01:38:22;;;;;;;8.52;5.13;;;;;;;23.07;72.19;99319.28;6215164;23;20039;-82
2022/06/30 01:40:48;;;;;;;7.13;5.22;;;;;;;23.01;72.23;99322.19;6243419;23;20369;-82
2022/06/30 01:43:14;;;;;;;10.13;5.65;;;;;;;23.05;72.92;99325.47;6215961;23;20035;-82
2022/06/30 01:45:40;;;;;;;9.80;5.65;;;;;;;23.16;73.45;99314.00;6242601;23;20009;-82
2022/06/30 01:48:07;;;;;;;9.70;5.60;;;;;;;22.94;75.58;99314.34;6243105;23;20011;-82
2022/06/30 01:50:33;;;;;;;10.00;5.85;;;;;;;22.95;75.94;99304.56;6243008;23;20087;-81
2022/06/30 01:52:59;;;;;;;8.23;5.53;;;;;;;22.94;75.77;99294.56;6214662;23;20046;-82
2022/06/30 01:55:25;;;;;;;7.03;5.32;;;;;;;22.84;76.10;99301.94;6240839;23;20008;-81
2022/06/30 01:57:51;;;;;;;9.57;5.60;;;;;;;22.53;77.75;99313.97;6241385;23;20058;-82
2022/06/30 02:00:19;;;;;;;9.30;5.82;;;;;;;22.61;77.90;99304.31;6216062;23;20008;-82
2022/06/30 02:02:45;;;;;;;9.18;5.72;;;;;;;22.62;77.48;99299.44;6234607;22;20073;-82
2022/06/30 02:05:11;;;;;;;9.82;5.50;;;;;;;22.23;79.18;99309.28;6245939;22;20219;-82
2022/06/30 02:07:39;;;;;;;8.00;5.80;;;;;;;22.45;78.58;99319.47;6246173;22;20085;-82
2022/06/30 02:10:06;;;;;;;9.25;5.55;;;;;;;22.45;77.27;99330.78;6274146;22;20422;-82
2022/06/30 02:12:47;;;;;;;10.20;5.95;;;;;;;22.43;77.04;99339.03;6273915;22;20097;-82
2022/06/30 02:15:18;;;;;;;9.90;5.68;;;;;;;22.55;76.91;99356.59;6273851;22;20422;-82
2022/06/30 02:17:45;;;;;;;7.25;5.40;;;;;;;22.56;76.99;99363.78;6247773;22;20019;-82
2022/06/30 02:20:11;;;;;;;7.82;5.18;;;;;;;22.57;76.80;99370.94;6245031;22;20039;-82
2022/06/30 02:22:38;;;;;;;7.15;5.60;;;;;;;22.62;76.34;99368.03;6247105;22;20015;-81
2022/06/30 02:25:05;;;;;;;7.82;5.35;;;;;;;22.66;75.97;99379.03;6244055;22;20429;-82
2022/06/30 02:27:30;;;;;;;7.50;5.57;;;;;;;22.71;76.30;99392.38;6246163;22;20417;-82
2022/06/30 02:29:56;;;;;;;7.65;5.43;;;;;;;22.75;76.20;99398.47;6246075;22;20023;-82
2022/06/30 02:32:22;;;;;;;9.73;6.43;;;;;;;22.79;75.83;99398.91;6220235;22;20014;-82
2022/06/30 02:34:48;;;;;;;10.35;5.32;;;;;;;22.84;75.51;99389.59;6272304;22;20384;-82
2022/06/30 02:37:14;;;;;;;8.95;5.78;;;;;;;22.64;77.16;99371.09;6273192;22;20035;-82
2022/06/30 02:39:40;;;;;;;7.15;5.28;;;;;;;22.69;76.85;99372.31;6274512;22;20442;-82
2022/06/30 02:42:06;;;;;;;9.10;5.68;;;;;;;22.61;77.17;99377.81;6245448;22;20319;-82
2022/06/30 02:44:31;;;;;;;9.85;6.32;;;;;;;22.47;79.26;99389.59;6273104;22;20016;-81
2022/06/30 02:46:57;;;;;;;9.13;6.30;;;;;;;22.39;80.86;99399.97;6274285;22;20018;-82
2022/06/30 02:49:22;;;;;;;16.67;7.13;;;;;;;22.39;81.64;99392.25;6271868;22;20019;-82
2022/06/30 02:51:49;;;;;;;10.15;6.93;;;;;;;22.28;83.01;99384.69;6273982;22;20004;-82
2022/06/30 02:54:14;;;;;;;8.30;6.53;;;;;;;22.24;83.90;99383.47;6273496;22;20016;-82
2022/06/30 02:56:40;;;;;;;9.90;6.85;;;;;;;22.04;85.10;99384.72;6247126;22;20356;-82
2022/06/30 02:59:06;;;;;;;13.10;6.97;;;;;;;22.01;84.82;99393.50;6245785;22;20016;-81
2022/06/30 03:01:32;;;;;;;8.57;6.82;;;;;;;21.92;85.65;99396.72;6273254;22;20507;-82
2022/06/30 03:04:01;;;;;;;10.35;6.50;;;;;;;21.88;85.55;99403.38;6272103;22;20018;-81
2022/06/30 03:06:28;;;;;;;7.93;6.25;;;;;;;21.77;85.72;99397.09;6245336;22;20016;-81
2022/06/30 03:08:55;;;;;;;10.70;6.13;;;;;;;21.71;86.42;99379.47;6272259;22;20012;-82
2022/06/30 03:11:21;;;;;;;8.45;6.22;;;;;;;21.65;86.83;99395.66;6246163;22;20035;-82
2022/06/30 03:13:47;;;;;;;10.15;6.70;;;;;;;21.64;86.60;99394.13;6272260;22;20060;-82
2022/06/30 03:16:13;;;;;;;10.48;6.43;;;;;;;21.60;86.44;99399.31;6246787;22;20430;-82
2022/06/30 03:18:39;;;;;;;8.13;5.93;;;;;;;21.54;86.70;99384.50;6272336;22;20003;-81
2022/06/30 03:21:05;;;;;;;9.50;6.22;;;;;;;21.58;86.31;99401.91;6246457;22;20015;-82
2022/06/30 03:23:30;;;;;;;7.57;5.85;;;;;;;21.55;86.29;99392.44;6273469;22;20062;-82
2022/06/30 03:25:56;;;;;;;8.48;5.72;;;;;;;21.57;85.52;99394.72;6246218;22;20016;-82
2022/06/30 03:28:22;;;;;;;8.68;5.50;;;;;;;21.61;84.88;99383.91;6272613;22;20011;-82
2022/06/30 03:30:47;;;;;;;8.05;5.28;;;;;;;21.56;84.33;99396.00;6272679;22;20365;-82
2022/06/30 03:33:16;;;;;;;8.00;5.25;;;;;;;21.61;84.54;99392.38;6272026;22;20043;-82
2022/06/30 03:35:42;;;;;;;8.90;5.07;;;;;;;21.48;83.76;99392.25;6245230;22;20020;-81
2022/06/30 03:38:08;;;;;;;7.97;5.07;;;;;;;21.44;83.83;99386.13;6272594;22;20084;-81
2022/06/30 03:40:33;;;;;;;5.63;4.45;;;;;;;21.50;83.41;99389.66;6273290;22;20011;-81
2022/06/30 03:42:59;;;;;;;7.75;5.32;;;;;;;21.48;83.62;99383.78;6221544;22;20011;-81
2022/06/30 03:45:25;;;;;;;10.00;5.00;;;;;;;21.41;83.93;99382.31;6271741;22;20008;-82
2022/06/30 03:47:51;;;;;;;7.07;4.88;;;;;;;21.37;84.28;99379.03;6220135;22;20031;-82
2022/06/30 03:50:16;;;;;;;8.32;4.60;;;;;;;21.32;85.45;99388.28;6221382;22;20012;-84
2022/06/30 03:52:42;;;;;;;7.97;4.90;;;;;;;21.19;86.16;99388.91;6220510;22;20027;-83
2022/06/30 03:55:08;;;;;;;6.57;4.97;;;;;;;21.24;85.77;99390.91;6271278;22;20022;-83
2022/06/30 03:57:33;;;;;;;6.57;5.28;;;;;;;21.28;85.79;99393.44;6272269;22;20000;-82
2022/06/30 03:59:59;;;;;;;6.65;4.85;;;;;;;21.22;86.42;99396.34;6273061;22;20468;-82
2022/06/30 04:02:25;;;;;;;8.45;5.03;;;;;;;21.20;86.14;99389.69;6270974;22;20392;-82
2022/06/30 04:04:51;;;;;;;6.18;4.70;;;;;;;21.27;86.02;99394.78;6245672;22;20511;-82
2022/06/30 04:07:16;;;;;;;6.38;4.90;;;;;;;21.16;86.20;99392.78;6272761;22;20376;-82
2022/06/30 04:09:42;;;;;;;8.88;5.15;;;;;;;21.15;86.70;99399.72;6271831;22;20008;-82
2022/06/30 04:12:08;;;;;;;6.28;5.07;;;;;;;21.12;87.16;99400.00;6273206;22;20095;-82
2022/06/30 04:14:33;;;;;;;7.15;5.25;;;;;;;21.15;87.58;99405.34;6245801;22;20008;-82
2022/06/30 04:17:00;;;;;;;6.80;4.85;;;;;;;21.16;86.88;99406.88;6272114;22;20582;-82
2022/06/30 04:19:26;;;;;;;7.30;5.03;;;;;;;21.15;86.66;99410.25;6270663;22;20432;-82
2022/06/30 04:21:51;;;;;;;8.35;4.95;;;;;;;21.14;86.86;99409.47;6246270;22;20019;-82
2022/06/30 04:24:17;;;;;;;6.78;4.78;;;;;;;21.12;87.32;99406.41;6246191;22;20436;-81
2022/06/30 04:26:42;;;;;;;6.90;5.43;;;;;;;21.13;87.16;99407.94;6222204;22;20011;-81
2022/06/30 04:29:08;;;;;;;8.18;5.15;;;;;;;21.14;87.39;99408.72;6245336;22;20012;-82
2022/06/30 04:34:17;;;;;;;7.35;5.00;;;;;;;21.29;86.34;99418.31;6274273;22;20042;-81
2022/06/30 04:36:43;;;;;;;8.63;4.97;;;;;;;21.40;85.81;99411.81;6275076;22;20003;-82
2022/06/30 04:39:08;;;;;;;7.00;4.90;;;;;;;21.47;86.14;99421.78;6275062;22;20013;-82
2022/06/30 04:41:36;;;;;;;6.20;5.03;;;;;;;21.53;85.51;99422.47;6246362;22;20018;-81
2022/06/30 04:44:02;;;;;;;6.97;4.70;;;;;;;21.67;85.59;99432.63;6275623;22;20068;-82
2022/06/30 04:46:28;;;;;;;6.85;5.53;;;;;;;21.72;84.98;99426.91;6274744;22;20445;-81
2022/06/30 04:48:54;;;;;;;6.80;4.90;;;;;;;21.79;83.95;99417.09;6274790;22;20080;-81
2022/06/30 04:51:20;;;;;;;6.43;5.10;;;;;;;21.81;84.25;99426.56;6275620;22;20053;-82
2022/06/30 04:53:46;;;;;;;6.45;5.28;;;;;;;21.93;83.52;99430.03;6248126;22;20077;-82
2022/06/30 04:56:13;;;;;;;7.85;5.07;;;;;;;21.81;83.99;99425.78;6247893;22;20348;-82
2022/06/30 04:58:39;;;;;;;9.23;5.13;;;;;;;21.89;84.24;99438.03;6273768;22;20083;-82
2022/06/30 05:01:05;;;;;;;7.07;4.80;;;;;;;21.91;83.32;99440.31;6274063;22;20018;-82
2022/06/30 05:03:31;;;;;;;8.57;4.88;;;;;;;21.81;84.08;99434.25;6219586;22;20012;-81
2022/06/30 05:05:57;;;;;;;6.38;4.82;;;;;;;21.92;84.12;99436.97;6247751;22;20012;-82
2022/06/30 05:08:23;;;;;;;6.15;4.75;;;;;;;22.03;83.95;99430.47;6273221;22;20337;-81
2022/06/30 05:10:49;;;;;;;6.60;4.68;;;;;;;22.10;82.65;99429.88;6274317;22;20337;-81
2022/06/30 05:13:15;;;;;;;11.32;5.07;;;;;;;22.19;83.14;99430.28;6220580;22;20016;-82
2022/06/30 05:15:41;;;;;;;6.22;4.55;;;;;;;22.13;83.38;99435.22;6247209;22;20388;-81
2022/06/30 05:18:06;;;;;;;7.25;4.93;;;;;;;22.20;83.06;99431.78;6219563;22;20011;-81
2022/06/30 05:20:32;;;;;;;6.90;4.63;;;;;;;22.22;82.96;99437.69;6271366;22;20019;-82
2022/06/30 05:22:58;;;;;;;7.68;4.82;;;;;;;22.38;82.60;99427.47;6244415;22;20011;-81
2022/06/30 05:28:08;;;;;;;6.95;4.60;;;;;;;22.58;80.93;99423.34;6249683;22;20022;-81
2022/06/30 05:30:33;;;;;;;6.85;4.97;;;;;;;22.73;80.44;99423.66;6272666;22;20004;-81
2022/06/30 05:32:59;;;;;;;11.85;5.05;;;;;;;22.84;80.32;99406.56;6273526;22;20522;-81
2022/06/30 05:35:24;;;;;;;6.97;4.95;;;;;;;22.99;79.45;99415.31;6273833;22;20011;-81
2022/06/30 05:37:50;;;;;;;7.07;4.70;;;;;;;23.05;78.45;99418.81;6273069;22;20015;-81
2022/06/30 05:40:15;;;;;;;8.23;5.13;;;;;;;23.27;77.40;99420.53;6221076;22;20027;-82
2022/06/30 05:42:41;;;;;;;7.72;4.90;;;;;;;23.43;77.00;99415.91;6272572;22;20011;-81
2022/06/30 05:45:07;;;;;;;7.38;5.25;;;;;;;23.45;76.34;99419.75;6245395;22;20043;-81
2022/06/30 05:47:32;;;;;;;7.50;5.10;;;;;;;23.56;75.83;99418.78;6274069;22;20007;-81
2022/06/30 05:49:58;;;;;;;11.15;4.97;;;;;;;23.83;74.88;99420.34;6275077;22;20011;-81
2022/06/30 05:52:24;;;;;;;5.97;5.00;;;;;;;24.00;74.76;99417.97;6273987;22;20062;-81
2022/06/30 05:54:49;;;;;;;6.88;4.90;;;;;;;24.07;73.03;99422.19;6274018;22;20008;-81
2022/06/30 05:57:15;;;;;;;7.47;5.00;;;;;;;24.26;72.69;99422.13;6273260;22;20014;-81
2022/06/30 05:59:40;;;;;;;9.40;5.10;;;;;;;24.24;72.57;99419.06;6273449;22;20370;-81
2022/06/30 06:02:06;;;;;;;8.02;4.88;;;;;;;24.33;72.20;99422.22;6246164;22;20026;-81
2022/06/30 06:04:32;;;;;;;8.68;5.20;;;;;;;24.55;72.54;99421.72;6273804;22;20015;-82
2022/06/30 06:06:57;;;;;;;7.00;5.10;;;;;;;24.64;71.63;99423.34;6273969;22;20035;-82
2022/06/30 06:09:23;;;;;;;11.20;5.30;;;;;;;24.80;71.15;99425.06;6273357;22;20008;-82
2022/06/30 06:11:49;;;;;;;8.95;4.90;;;;;;;25.01;69.60;99417.38;6273164;22;20007;-82
2022/06/30 06:14:15;;;;;;;6.05;4.90;;;;;;;25.12;68.30;99426.91;6274179;22;20008;-82
2022/06/30 06:16:40;;;;;;;7.60;5.40;;;;;;;25.15;68.58;99425.84;6273273;22;20010;-82
2022/06/30 06:19:05;;;;;;;6.40;5.53;;;;;;;25.27;67.34;99432.75;6272364;22;20011;-81
2022/06/30 06:21:34;;;;;;;7.47;5.38;;;;;;;25.08;68.47;99436.53;6273644;22;20014;-82
2022/06/30 06:23:59;;;;;;;8.00;5.53;;;;;;;25.33;67.42;99436.22;6273386;22;20028;-81
2022/06/30 06:26:25;;;;;;;8.50;5.20;;;;;;;25.42;67.36;99432.91;6274455;22;20102;-83
2022/06/30 06:29:05;;;;;;;7.70;5.20;;;;;;;25.18;67.66;99433.25;6274297;22;20015;-82
2022/06/30 06:31:32;;;;;;;7.47;5.15;;;;;;;25.20;68.06;99430.59;6274066;22;20150;-82
2022/06/30 06:33:58;;;;;;;10.13;5.03;;;;;;;25.69;67.38;99425.75;6247288;22;20057;-82
2022/06/30 06:36:23;;;;;;;7.93;4.85;;;;;;;25.84;64.99;99423.03;6246501;22;20015;-82
2022/06/30 06:38:49;;;;;;;6.90;5.47;;;;;;;25.76;64.76;99421.47;6273994;22;20337;-82
2022/06/30 06:41:15;;;;;;;7.15;4.93;;;;;;;25.84;64.52;99428.69;6245403;22;20008;-82
2022/06/30 06:43:41;;;;;;;5.78;5.15;;;;;;;25.90;63.99;99415.13;6272946;22;20004;-82
2022/06/30 06:46:06;;;;;;;7.22;4.95;;;;;;;26.54;62.71;99422.88;6273538;22;20322;-82
2022/06/30 06:48:32;;;;;;;6.32;5.10;;;;;;;26.82;61.50;99422.78;6273840;22;20039;-82
2022/06/30 06:50:58;;;;;;;7.85;5.47;;;;;;;27.08;59.97;99410.38;6247314;22;20011;-82
2022/06/30 06:53:23;;;;;;;8.90;5.70;;;;;;;26.61;60.88;99424.97;6273427;22;20016;-82
2022/06/30 06:55:49;;;;;;;8.82;5.55;;;;;;;26.87;60.02;99424.72;6245210;22;20086;-82
2022/06/30 06:58:15;;;;;;;8.25;5.80;;;;;;;26.68;60.91;99429.19;6244604;22;20008;-82
2022/06/30 07:00:40;;;;;;;5.75;5.15;;;;;;;26.69;60.68;99436.41;6243687;22;20011;-82
2022/06/30 07:03:06;;;;;;;7.57;5.47;;;;;;;27.10;58.97;99426.84;6270310;22;20046;-83
2022/06/30 07:05:31;;;;;;;7.85;5.60;;;;;;;27.02;58.94;99426.09;6271002;22;20012;-83
2022/06/30 07:07:58;;;;;;;7.28;5.30;;;;;;;26.95;59.06;99421.13;6273068;22;20107;-83
2022/06/30 07:10:24;;;;;;;6.38;5.25;;;;;;;27.23;58.35;99427.47;6271915;22;20012;-82
2022/06/30 07:12:51;;;;;;;7.50;5.20;;;;;;;27.31;57.97;99421.78;6272759;22;20252;-83
2022/06/30 07:15:17;;;;;;;6.05;5.45;;;;;;;27.38;57.64;99426.69;6243634;22;20491;-82
2022/06/30 07:17:43;;;;;;;8.75;5.55;;;;;;;27.87;56.16;99436.97;6244900;22;20041;-82
2022/06/30 07:20:09;;;;;;;7.03;5.43;;;;;;;28.21;54.77;99432.41;6272531;22;20011;-82
2022/06/30 07:22:34;;;;;;;6.40;5.45;;;;;;;28.46;53.14;99429.66;6217249;22;20012;-83
2022/06/30 07:25:01;;;;;;;9.50;5.32;;;;;;;28.79;52.94;99430.50;6271851;22;20090;-82
2022/06/30 07:27:26;;;;;;;7.63;6.10;;;;;;;28.43;53.31;99436.50;6270649;22;20021;-82
2022/06/30 07:29:52;;;;;;;7.72;5.50;;;;;;;28.04;54.47;99422.91;6271321;22;20361;-82
2022/06/30 07:32:17;;;;;;;8.85;5.50;;;;;;;27.93;55.58;99437.56;6267748;22;20361;-82
2022/06/30 07:34:43;;;;;;;7.35;5.22;;;;;;;28.55;54.26;99426.19;6269696;22;20409;-81
2022/06/30 07:37:08;;;;;;;7.45;5.20;;;;;;;28.54;54.22;99423.91;6270349;22;20640;-81
2022/06/30 07:39:34;;;;;;;7.05;5.32;;;;;;;28.41;54.29;99430.63;6244319;22;20019;-81
2022/06/30 07:41:59;;;;;;;8.77;5.75;;;;;;;28.49;54.05;99434.22;6270469;22;20116;-81
2022/06/30 07:44:25;;;;;;;7.43;5.72;;;;;;;29.06;52.48;99427.88;6271407;22;20384;-82
2022/06/30 07:46:51;;;;;;;6.55;5.60;;;;;;;28.83;52.93;99432.94;6242204;22;20012;-82
2022/06/30 07:49:17;;;;;;;6.63;5.50;;;;;;;29.34;52.26;99432.47;6270313;22;20434;-81
2022/06/30 07:51:42;;;;;;;8.18;5.80;;;;;;;29.36;49.76;99433.38;6271126;22;20082;-81
2022/06/30 07:54:08;;;;;;;8.13;5.28;;;;;;;29.39;49.60;99434.34;6272860;22;20075;-82
2022/06/30 07:56:33;;;;;;;9.00;5.60;;;;;;;29.31;48.82;99430.78;6270966;22;20061;-81
2022/06/30 07:59:00;;;;;;;7.40;5.50;;;;;;;29.24;49.09;99426.59;6273191;22;20023;-81
2022/06/30 08:01:26;;;;;;;6.40;5.57;;;;;;;29.38;50.18;99427.88;6246208;22;20007;-81
2022/06/30 08:03:51;;;;;;;7.60;5.22;;;;;;;29.68;50.34;99423.25;6273397;22;20019;-82
2022/06/30 08:06:17;;;;;;;8.43;5.80;;;;;;;29.85;47.93;99431.84;6273763;22;20011;-82
2022/06/30 08:08:43;;;;;;;8.20;6.00;;;;;;;29.65;48.69;99425.91;6246788;22;20020;-82
2022/06/30 08:11:11;;;;;;;8.18;5.32;;;;;;;29.43;48.97;99424.03;6275764;22;20007;-82
2022/06/30 08:13:37;;;;;;;7.72;5.88;;;;;;;29.58;48.30;99426.75;6248345;22;20015;-82
2022/06/30 08:16:03;;;;;;;10.30;5.43;;;;;;;29.50;48.37;99417.47;6247859;22;20015;-81
2022/06/30 08:18:29;;;;;;;8.65;6.30;;;;;;;29.65;47.35;99416.59;6221955;22;20008;-81
2022/06/30 08:20:55;;;;;;;8.18;6.03;;;;;;;29.67;47.39;99421.72;6248492;22;20391;-80
2022/06/30 08:23:20;;;;;;;7.18;5.47;;;;;;;29.69;46.70;99425.50;6248907;22;20011;-82
2022/06/30 08:25:46;;;;;;;8.10;5.53;;;;;;;29.97;45.80;99427.19;6275400;22;20003;-81
2022/06/30 08:28:12;;;;;;;7.57;5.30;;;;;;;30.19;46.07;99420.47;6249024;22;20016;-81
2022/06/30 08:30:37;;;;;;;9.60;5.60;;;;;;;30.65;46.17;99431.41;6276216;22;20011;-82
2022/06/30 08:33:03;;;;;;;6.75;5.57;;;;;;;30.46;48.04;99427.03;6249188;22;20441;-82
2022/06/30 08:35:28;;;;;;;9.52;5.60;;;;;;;30.47;45.82;99431.44;6275771;22;19999;-82
2022/06/30 08:37:54;;;;;;;8.93;5.78;;;;;;;30.82;45.17;99425.63;6276365;22;20493;-81
2022/06/30 08:43:06;;;;;;;10.73;6.03;;;;;;;30.58;44.27;99433.00;6253459;22;20016;-82
2022/06/30 08:45:33;;;;;;;8.10;5.68;;;;;;;30.77;45.17;99423.81;6275323;22;20016;-81
2022/06/30 08:47:59;;;;;;;6.95;5.43;;;;;;;31.22;44.66;99428.91;6275241;22;20074;-82
2022/06/30 08:50:26;;;;;;;11.32;5.75;;;;;;;31.17;45.14;99427.09;6272534;22;20007;-82
2022/06/30 08:52:54;;;;;;;7.13;5.80;;;;;;;30.91;43.42;99427.81;6248422;22;20437;-82
2022/06/30 08:55:23;;;;;;;7.70;5.50;;;;;;;31.15;43.29;99429.78;6273260;22;20018;-82
2022/06/30 08:57:50;;;;;;;6.47;5.80;;;;;;;30.93;43.97;99427.97;6275460;22;20016;-82
2022/06/30 09:00:17;;;;;;;9.82;5.72;;;;;;;30.77;45.10;99436.03;6223121;22;20011;-82
2022/06/30 09:02:43;;;;;;;9.00;5.97;;;;;;;30.70;44.16;99427.50;6247358;22;20354;-82
2022/06/30 09:05:09;;;;;;;8.00;5.70;;;;;;;31.25;43.00;99430.59;6272879;22;20501;-82
2022/06/30 09:07:35;;;;;;;17.40;8.02;;;;;;;31.33;44.42;99425.50;6273590;22;20094;-82
2022/06/30 09:10:02;;;;;;;9.60;6.07;;;;;;;31.89;42.81;99417.69;6246791;22;20047;-82
2022/06/30 09:12:28;;;;;;;8.25;5.97;;;;;;;31.82;42.43;99429.31;6247010;22;20015;-82
2022/06/30 09:14:54;;;;;;;9.98;5.97;;;;;;;31.75;42.49;99424.44;6274825;22;20011;-82
2022/06/30 09:17:22;;;;;;;9.52;5.82;;;;;;;31.61;42.66;99421.25;6247573;22;20023;-82
2022/06/30 09:20:08;;;;;;;6.97;6.28;;;;;;;31.81;42.74;99422.06;6247873;22;20126;-82
2022/06/30 09:22:41;;;;;;;9.48;5.97;;;;;;;31.90;42.50;99421.31;6248244;22;20015;-82
2022/06/30 09:25:07;;;;;;;;;;;;;;;31.87;42.85;99413.91;6273815;22;20012;-82
2022/06/30 09:27:35;;;;;;;9.90;6.25;;;;;;;32.09;42.07;99421.38;6244924;22;19915;-82
2022/06/30 09:30:04;;;;;;;8.85;6.07;;;;;;;31.91;41.95;99429.31;6274106;22;20007;-82
2022/06/30 09:32:31;;;;;;;9.57;6.22;;;;;;;32.12;43.93;99428.00;6245448;22;20019;-82
2022/06/30 09:35:17;;;;;;;9.13;6.20;;;;;;;32.11;43.31;99415.78;6246818;22;20409;-82
2022/06/30 09:37:43;;;;;;;6.63;5.93;;;;;;;32.55;43.43;99424.09;6274525;22;20023;-83
2022/06/30 09:40:10;;;;;;;7.05;5.78;;;;;;;32.64;42.62;99413.97;6273432;22;20019;-82
2022/06/30 09:42:44;;;;;;;7.00;5.60;;;;;;;32.31;43.58;99419.44;6274226;22;20011;-82
2022/06/30 09:45:12;;;;;;;7.65;6.00;;;;;;;32.41;42.42;99411.56;6247103;22;20011;-82
2022/06/30 09:47:51;;;;;;;9.27;5.63;;;;;;;32.06;42.67;99413.94;6247483;22;20501;-82
2022/06/30 09:50:16;;;;;;;9.90;6.25;;;;;;;32.07;42.83;99415.44;6247613;22;20019;-82
2022/06/30 09:52:42;;;;;;;8.48;6.13;;;;;;;32.39;42.61;99417.91;6274562;22;20023;-82
2022/06/30 09:55:08;;;;;;;7.22;6.03;;;;;;;31.97;42.68;99396.72;6221695;22;20347;-82
2022/06/30 09:57:45;;;;;;;6.68;6.03;;;;;;;32.23;41.40;99415.97;6274775;22;20054;-82
2022/06/30 10:00:15;;;;;;;9.10;6.43;;;;;;;32.05;41.43;99406.69;6274685;22;20011;-82
2022/06/30 10:02:45;;;;;;;7.30;6.28;;;;;;;32.11;41.91;99410.03;6247357;22;20437;-82
2022/06/30 10:05:13;;;;;;;8.35;6.47;;;;;;;31.96;43.30;99403.81;6248050;22;20012;-82
2022/06/30 10:07:39;;;;;;;7.57;6.07;;;;;;;31.74;42.93;99417.22;6274774;22;20011;-82
2022/06/30 10:10:09;;;;;;;9.85;6.63;;;;;;;32.39;43.08;99420.78;6274797;22;20092;-81
2022/06/30 10:12:35;;;;;;;7.95;6.20;;;;;;;32.05;42.15;99406.69;6247242;22;20430;-81
2022/06/30 10:15:00;;;;;;;7.75;6.10;;;;;;;32.39;40.67;99412.16;6219356;22;20454;-82
2022/06/30 10:17:28;;;;;;;7.70;6.22;;;;;;;32.05;42.86;99409.56;6244293;22;20058;-81
2022/06/30 10:19:55;;;;;;;8.95;6.22;;;;;;;32.02;42.56;99413.66;6217318;22;20012;-82
2022/06/30 10:22:22;;;;;;;9.32;7.75;;;;;;;32.14;41.86;99408.84;6266032;22;20091;-83
2022/06/30 10:24:49;;;;;;;10.27;7.38;;;;;;;32.29;41.43;99408.56;6268287;22;20057;-81
2022/06/30 10:27:16;;;;;;;6.93;5.72;;;;;;;32.57;40.58;99403.38;6271602;22;20022;-81
2022/06/30 10:30:09;;;;;;;7.95;6.10;;;;;;;32.51;40.77;99411.56;6244536;22;20061;-81
2022/06/30 10:33:13;;;;;;;9.52;6.22;;;;;;;32.45;40.52;99408.22;6246692;22;20016;-87
2022/06/30 10:35:45;;;;;;;8.07;6.07;;;;;;;31.69;42.68;99406.78;6170183;22;20433;-88
2022/06/30 10:38:20;;;;;;;6.88;6.13;;;;;;;31.81;41.33;99404.84;6245731;22;20061;-87
2022/06/30 10:41:04;;;;;;;8.45;6.10;;;;;;;32.19;40.05;99393.44;6273995;22;20043;-87
2022/06/30 10:43:29;;;;;;;9.63;7.20;;;;;;;32.46;40.45;99404.00;6272989;22;20046;-88
2022/06/30 10:46:02;;;;;;;8.35;6.13;;;;;;;32.34;40.44;99404.63;6272446;22;20033;-87
2022/06/30 10:48:53;;;;;;;7.20;6.13;;;;;;;32.01;39.48;99392.03;6245580;22;20012;-86
2022/06/30 10:51:20;;;;;;;9.18;6.63;;;;;;;31.80;42.51;99394.72;6229305;22;20020;-86
2022/06/30 10:53:46;;;;;;;8.23;6.50;;;;;;;32.82;41.12;99395.97;6245992;22;20352;-88
2022/06/30 10:56:11;;;;;;;7.28;6.45;;;;;;;32.74;40.93;99395.38;6272075;22;20094;-88
2022/06/30 10:58:37;;;;;;;10.20;6.72;;;;;;;33.11;41.01;99395.13;6244473;22;20388;-86
2022/06/30 11:01:03;;;;;;;10.30;6.20;;;;;;;33.05;41.10;99398.31;6245293;22;20004;-87
2022/06/30 11:03:34;;;;;;;10.02;6.80;;;;;;;33.33;40.27;99402.47;6271804;22;20020;-88
2022/06/30 11:06:06;;;;;;;7.50;6.55;;;;;;;33.20;40.00;99403.00;6270464;22;20353;-89
2022/06/30 11:08:50;;;;;;;7.30;5.93;;;;;;;33.36;40.25;99406.25;6271578;22;20070;-88
2022/06/30 11:11:24;;;;;;;7.13;6.10;;;;;;;32.68;40.85;99399.91;6271244;22;20468;-82
2022/06/30 11:14:02;;;;;;;8.18;6.85;;;;;;;31.93;42.88;99400.03;6271943;22;20066;-83
2022/06/30 11:16:29;;;;;;;7.32;6.60;;;;;;;32.71;42.00;99402.34;6269180;22;20018;-83
2022/06/30 11:18:55;;;;;;;7.25;6.55;;;;;;;33.03;41.84;99408.94;6244692;22;19999;-83
2022/06/30 11:21:20;;;;;;;8.38;6.20;;;;;;;32.50;43.81;99405.06;6244815;22;20350;-83
2022/06/30 11:23:47;;;;;;;10.70;6.78;;;;;;;32.92;43.93;99404.56;6272596;22;20081;-82
2022/06/30 11:29:01;;;;;;;8.70;6.70;;;;;;;32.96;42.67;99393.34;6270051;22;20077;-82
2022/06/30 11:31:37;;;;;;;9.13;6.43;;;;;;;32.93;43.75;99400.31;6271135;22;20069;-83
2022/06/30 11:34:11;;;;;;;8.23;6.90;;;;;;;32.86;43.53;99404.13;6270823;22;20513;-83
2022/06/30 11:36:39;;;;;;;9.65;6.03;;;;;;;32.79;43.06;99399.31;6244516;22;20019;-82
2022/06/30 11:39:10;;;;;;;9.57;6.70;;;;;;;32.66;44.60;99394.03;6271523;22;20007;-82
2022/06/30 11:41:56;;;;;;;9.48;6.93;;;;;;;32.60;43.75;99399.28;6220283;22;20046;-83
2022/06/30 11:44:34;;;;;;;9.13;6.70;;;;;;;32.52;43.48;99393.72;6272081;22;20022;-82
2022/06/30 11:47:06;;;;;;;10.38;6.45;;;;;;;32.95;44.25;99402.59;6272399;22;20008;-82